sensor_id;sensor_type;location;lat;lon;timestamp;temperature;humidity
9223;DHT22;7557;51.698;3.942;2023-01-16T00:02:00;5.50;99.90
9223;DHT22;7557;51.698;3.942;2023-01-16T00:04:28;5.40;99.90
9223;DHT22;7557;51.698;3.942;2023-01-16T00:06:56;5.40;99.90
9223;DHT22;7557;51.698;3.942;2023-01-16T00:09:25;5.40;99.90
9223;DHT22;7557;51.698;3.942;2023-01-16T00:11:53;5.40;99.90
9223;DHT22;7557;51.698;3.942;2023-01-16T00:14:20;5.40;99.90
9223;DHT22;7557;51.698;3.942;2023-01-16T00:16:48;5.40;99.90
9223;DHT22;7557;51.698;3.942;2023-01-16T00:19:18;5.40;99.90
9223;DHT22;7557;51.698;3.942;2023-01-16T00:21:45;5.40;99.90
9223;DHT22;7557;51.698;3.942;2023-01-16T00:24:15;5.40;99.90
9223;DHT22;7557;51.698;3.942;2023-01-16T00:26:43;5.40;99.90
9223;DHT22;7557;51.698;3.942;2023-01-16T00:29:11;5.30;99.90
9223;DHT22;7557;51.698;3.942;2023-01-16T00:31:39;5.30;99.90
9223;DHT22;7557;51.698;3.942;2023-01-16T00:34:06;5.30;99.90
9223;DHT22;7557;51.698;3.942;2023-01-16T00:36:34;5.40;99.90
9223;DHT22;7557;51.698;3.942;2023-01-16T00:39:02;5.40;99.90
9223;DHT22;7557;51.698;3.942;2023-01-16T00:41:30;5.40;99.90
9223;DHT22;7557;51.698;3.942;2023-01-16T00:43:59;5.40;99.90
9223;DHT22;7557;51.698;3.942;2023-01-16T00:46:26;5.40;99.90
9223;DHT22;7557;51.698;3.942;2023-01-16T00:48:55;5.40;99.90
9223;DHT22;7557;51.698;3.942;2023-01-16T00:51:23;5.40;99.90
9223;DHT22;7557;51.698;3.942;2023-01-16T00:53:50;5.40;99.90
9223;DHT22;7557;51.698;3.942;2023-01-16T00:56:18;5.50;99.90
9223;DHT22;7557;51.698;3.942;2023-01-16T00:58:45;5.50;99.90
9223;DHT22;7557;51.698;3.942;2023-01-16T01:01:14;5.50;99.90
9223;DHT22;7557;51.698;3.942;2023-01-16T01:03:41;5.50;99.90
9223;DHT22;7557;51.698;3.942;2023-01-16T01:06:10;5.50;99.90
9223;DHT22;7557;51.698;3.942;2023-01-16T01:08:38;5.50;99.90
9223;DHT22;7557;51.698;3.942;2023-01-16T01:11:07;5.60;99.90
9223;DHT22;7557;51.698;3.942;2023-01-16T01:13:35;5.60;99.90
9223;DHT22;7557;51.698;3.942;2023-01-16T01:16:03;5.60;99.90
9223;DHT22;7557;51.698;3.942;2023-01-16T01:18:32;5.60;99.90
9223;DHT22;7557;51.698;3.942;2023-01-16T01:20:59;5.60;99.90
9223;DHT22;7557;51.698;3.942;2023-01-16T01:23:27;5.70;99.90
9223;DHT22;7557;51.698;3.942;2023-01-16T01:25:54;5.70;99.90
9223;DHT22;7557;51.698;3.942;2023-01-16T01:28:22;5.70;99.90
9223;DHT22;7557;51.698;3.942;2023-01-16T01:30:49;5.70;99.90
9223;DHT22;7557;51.698;3.942;2023-01-16T01:33:16;5.70;99.90
9223;DHT22;7557;51.698;3.942;2023-01-16T01:35:45;5.70;99.90
9223;DHT22;7557;51.698;3.942;2023-01-16T01:38:13;5.70;99.90
9223;DHT22;7557;51.698;3.942;2023-01-16T01:40:40;5.70;99.90
9223;DHT22;7557;51.698;3.942;2023-01-16T01:43:13;5.70;99.90
9223;DHT22;7557;51.698;3.942;2023-01-16T01:45:42;5.70;99.90
9223;DHT22;7557;51.698;3.942;2023-01-16T01:48:18;5.70;99.90
9223;DHT22;7557;51.698;3.942;2023-01-16T01:50:54;5.70;99.90
9223;DHT22;7557;51.698;3.942;2023-01-16T01:53:27;5.70;99.90
9223;DHT22;7557;51.698;3.942;2023-01-16T01:55:59;5.70;99.90
9223;DHT22;7557;51.698;3.942;2023-01-16T01:58:28;5.80;99.90
9223;DHT22;7557;51.698;3.942;2023-01-16T02:00:57;5.70;99.90
9223;DHT22;7557;51.698;3.942;2023-01-16T02:03:31;5.80;99.90
9223;DHT22;7557;51.698;3.942;2023-01-16T02:06:05;5.70;99.90
9223;DHT22;7557;51.698;3.942;2023-01-16T02:08:34;5.80;99.90
9223;DHT22;7557;51.698;3.942;2023-01-16T02:11:08;5.80;99.90
9223;DHT22;7557;51.698;3.942;2023-01-16T02:13:53;5.80;99.90
9223;DHT22;7557;51.698;3.942;2023-01-16T02:16:21;5.80;99.90
9223;DHT22;7557;51.698;3.942;2023-01-16T02:19:08;5.80;99.90
9223;DHT22;7557;51.698;3.942;2023-01-16T02:22:24;5.90;99.90
9223;DHT22;7557;51.698;3.942;2023-01-16T02:28:32;5.90;99.90
9223;DHT22;7557;51.698;3.942;2023-01-16T02:31:24;5.80;99.90
9223;DHT22;7557;51.698;3.942;2023-01-16T02:34:06;5.80;99.90
9223;DHT22;7557;51.698;3.942;2023-01-16T02:36:45;5.80;99.90
9223;DHT22;7557;51.698;3.942;2023-01-16T02:39:22;5.80;99.90
9223;DHT22;7557;51.698;3.942;2023-01-16T02:42:02;5.80;99.90
9223;DHT22;7557;51.698;3.942;2023-01-16T02:44:40;5.80;99.90
9223;DHT22;7557;51.698;3.942;2023-01-16T02:47:15;5.80;99.90
9223;DHT22;7557;51.698;3.942;2023-01-16T02:49:50;5.90;99.90
9223;DHT22;7557;51.698;3.942;2023-01-16T02:52:25;5.90;99.90
9223;DHT22;7557;51.698;3.942;2023-01-16T02:55:01;5.90;99.90
9223;DHT22;7557;51.698;3.942;2023-01-16T02:57:33;5.90;99.90
9223;DHT22;7557;51.698;3.942;2023-01-16T03:00:03;5.90;99.90
9223;DHT22;7557;51.698;3.942;2023-01-16T03:02:33;5.90;99.90
9223;DHT22;7557;51.698;3.942;2023-01-16T03:05:00;5.90;99.90
9223;DHT22;7557;51.698;3.942;2023-01-16T03:07:53;5.90;99.90
9223;DHT22;7557;51.698;3.942;2023-01-16T03:10:41;5.80;99.90
9223;DHT22;7557;51.698;3.942;2023-01-16T03:13:18;5.80;99.90
9223;DHT22;7557;51.698;3.942;2023-01-16T03:15:55;5.80;99.90
9223;DHT22;7557;51.698;3.942;2023-01-16T03:18:34;5.70;99.90
9223;DHT22;7557;51.698;3.942;2023-01-16T03:21:06;5.70;99.90
9223;DHT22;7557;51.698;3.942;2023-01-16T03:23:43;5.70;99.90
9223;DHT22;7557;51.698;3.942;2023-01-16T03:26:17;5.70;99.90
9223;DHT22;7557;51.698;3.942;2023-01-16T03:28:53;5.80;99.90
9223;DHT22;7557;51.698;3.942;2023-01-16T03:31:28;5.80;99.90
9223;DHT22;7557;51.698;3.942;2023-01-16T03:34:10;5.80;99.90
9223;DHT22;7557;51.698;3.942;2023-01-16T03:36:43;5.80;99.90
9223;DHT22;7557;51.698;3.942;2023-01-16T03:39:15;5.80;99.90
9223;DHT22;7557;51.698;3.942;2023-01-16T03:41:44;5.80;99.90
9223;DHT22;7557;51.698;3.942;2023-01-16T03:44:17;5.80;99.90
9223;DHT22;7557;51.698;3.942;2023-01-16T03:46:51;5.80;99.90
9223;DHT22;7557;51.698;3.942;2023-01-16T03:49:22;5.90;99.90
9223;DHT22;7557;51.698;3.942;2023-01-16T03:51:55;5.90;99.90
9223;DHT22;7557;51.698;3.942;2023-01-16T03:54:31;6.00;99.90
9223;DHT22;7557;51.698;3.942;2023-01-16T03:57:06;6.00;99.90
9223;DHT22;7557;51.698;3.942;2023-01-16T03:59:35;6.00;99.90
9223;DHT22;7557;51.698;3.942;2023-01-16T04:02:09;6.10;99.90
9223;DHT22;7557;51.698;3.942;2023-01-16T04:04:43;6.10;99.90
9223;DHT22;7557;51.698;3.942;2023-01-16T04:07:13;6.10;99.90
9223;DHT22;7557;51.698;3.942;2023-01-16T04:09:49;6.10;99.90
9223;DHT22;7557;51.698;3.942;2023-01-16T04:12:21;6.10;99.90
9223;DHT22;7557;51.698;3.942;2023-01-16T04:14:55;6.10;99.90
9223;DHT22;7557;51.698;3.942;2023-01-16T04:17:26;6.20;99.90
9223;DHT22;7557;51.698;3.942;2023-01-16T04:19:55;6.20;99.90
9223;DHT22;7557;51.698;3.942;2023-01-16T04:22:25;6.20;99.90
9223;DHT22;7557;51.698;3.942;2023-01-16T04:24:54;6.30;99.90
9223;DHT22;7557;51.698;3.942;2023-01-16T04:27:22;6.30;99.90
9223;DHT22;7557;51.698;3.942;2023-01-16T04:29:50;6.30;99.90
9223;DHT22;7557;51.698;3.942;2023-01-16T04:32:18;6.30;99.90
9223;DHT22;7557;51.698;3.942;2023-01-16T04:34:46;6.40;99.90
9223;DHT22;7557;51.698;3.942;2023-01-16T04:37:16;6.40;99.90
9223;DHT22;7557;51.698;3.942;2023-01-16T04:39:44;6.40;99.90
9223;DHT22;7557;51.698;3.942;2023-01-16T04:42:13;6.30;99.90
9223;DHT22;7557;51.698;3.942;2023-01-16T04:44:41;6.40;99.90
9223;DHT22;7557;51.698;3.942;2023-01-16T04:47:08;6.30;99.90
9223;DHT22;7557;51.698;3.942;2023-01-16T04:49:35;6.30;99.90
9223;DHT22;7557;51.698;3.942;2023-01-16T04:52:03;6.30;99.90
9223;DHT22;7557;51.698;3.942;2023-01-16T04:54:33;6.30;99.90
9223;DHT22;7557;51.698;3.942;2023-01-16T04:57:00;6.30;99.90
9223;DHT22;7557;51.698;3.942;2023-01-16T04:59:28;6.30;99.90
9223;DHT22;7557;51.698;3.942;2023-01-16T05:01:55;6.30;99.90
9223;DHT22;7557;51.698;3.942;2023-01-16T05:04:23;6.30;99.90
9223;DHT22;7557;51.698;3.942;2023-01-16T05:06:51;6.20;99.90
9223;DHT22;7557;51.698;3.942;2023-01-16T05:09:18;6.30;99.90
9223;DHT22;7557;51.698;3.942;2023-01-16T05:11:47;6.30;99.90
9223;DHT22;7557;51.698;3.942;2023-01-16T05:14:15;6.20;99.90
9223;DHT22;7557;51.698;3.942;2023-01-16T05:16:44;6.20;99.90
9223;DHT22;7557;51.698;3.942;2023-01-16T05:19:11;6.20;99.90
9223;DHT22;7557;51.698;3.942;2023-01-16T05:21:38;6.20;99.90
9223;DHT22;7557;51.698;3.942;2023-01-16T05:24:06;6.20;99.90
9223;DHT22;7557;51.698;3.942;2023-01-16T05:26:34;6.20;99.90
9223;DHT22;7557;51.698;3.942;2023-01-16T05:29:03;6.20;99.90
9223;DHT22;7557;51.698;3.942;2023-01-16T05:31:30;6.20;99.90
9223;DHT22;7557;51.698;3.942;2023-01-16T05:33:58;6.20;99.90
9223;DHT22;7557;51.698;3.942;2023-01-16T05:36:25;6.20;99.90
9223;DHT22;7557;51.698;3.942;2023-01-16T05:38:53;6.20;99.90
9223;DHT22;7557;51.698;3.942;2023-01-16T05:41:20;6.20;99.90
9223;DHT22;7557;51.698;3.942;2023-01-16T05:43:48;6.20;99.90
9223;DHT22;7557;51.698;3.942;2023-01-16T05:46:17;6.30;99.90
9223;DHT22;7557;51.698;3.942;2023-01-16T05:48:45;6.30;99.90
9223;DHT22;7557;51.698;3.942;2023-01-16T05:51:12;6.30;99.90
9223;DHT22;7557;51.698;3.942;2023-01-16T05:53:39;6.30;99.90
9223;DHT22;7557;51.698;3.942;2023-01-16T05:56:08;6.20;99.90
9223;DHT22;7557;51.698;3.942;2023-01-16T05:58:36;6.20;99.90
9223;DHT22;7557;51.698;3.942;2023-01-16T06:01:03;6.20;99.90
9223;DHT22;7557;51.698;3.942;2023-01-16T06:03:32;6.20;99.90
9223;DHT22;7557;51.698;3.942;2023-01-16T06:05:59;6.20;99.90
9223;DHT22;7557;51.698;3.942;2023-01-16T06:08:27;6.20;99.90
9223;DHT22;7557;51.698;3.942;2023-01-16T06:10:56;6.20;99.90
9223;DHT22;7557;51.698;3.942;2023-01-16T06:13:24;6.10;99.90
9223;DHT22;7557;51.698;3.942;2023-01-16T06:15:51;6.20;99.90
9223;DHT22;7557;51.698;3.942;2023-01-16T06:18:18;6.20;99.90
9223;DHT22;7557;51.698;3.942;2023-01-16T06:20:47;6.30;99.90
9223;DHT22;7557;51.698;3.942;2023-01-16T06:23:15;6.30;99.90
9223;DHT22;7557;51.698;3.942;2023-01-16T06:25:42;6.30;99.90
9223;DHT22;7557;51.698;3.942;2023-01-16T06:28:10;6.30;99.90
9223;DHT22;7557;51.698;3.942;2023-01-16T06:30:38;6.30;99.90
9223;DHT22;7557;51.698;3.942;2023-01-16T06:33:05;6.30;99.90
9223;DHT22;7557;51.698;3.942;2023-01-16T06:35:33;6.40;99.90
9223;DHT22;7557;51.698;3.942;2023-01-16T06:38:02;6.30;99.90
9223;DHT22;7557;51.698;3.942;2023-01-16T06:40:30;6.40;99.90
9223;DHT22;7557;51.698;3.942;2023-01-16T06:42:57;6.40;99.90
9223;DHT22;7557;51.698;3.942;2023-01-16T06:45:25;6.30;99.90
9223;DHT22;7557;51.698;3.942;2023-01-16T06:47:52;6.40;99.90
9223;DHT22;7557;51.698;3.942;2023-01-16T06:50:20;6.40;99.90
9223;DHT22;7557;51.698;3.942;2023-01-16T06:52:48;6.40;99.90
9223;DHT22;7557;51.698;3.942;2023-01-16T06:55:17;6.40;99.90
9223;DHT22;7557;51.698;3.942;2023-01-16T06:57:46;6.40;99.90
9223;DHT22;7557;51.698;3.942;2023-01-16T07:00:15;6.50;99.90
9223;DHT22;7557;51.698;3.942;2023-01-16T07:02:42;6.40;99.90
9223;DHT22;7557;51.698;3.942;2023-01-16T07:05:10;6.40;99.90
9223;DHT22;7557;51.698;3.942;2023-01-16T07:07:38;6.40;99.90
9223;DHT22;7557;51.698;3.942;2023-01-16T07:10:07;6.40;99.90
9223;DHT22;7557;51.698;3.942;2023-01-16T07:12:36;6.40;99.90
9223;DHT22;7557;51.698;3.942;2023-01-16T07:15:04;6.40;99.90
9223;DHT22;7557;51.698;3.942;2023-01-16T07:17:45;6.40;99.90
9223;DHT22;7557;51.698;3.942;2023-01-16T07:20:30;6.40;99.90
9223;DHT22;7557;51.698;3.942;2023-01-16T07:23:19;6.40;99.90
9223;DHT22;7557;51.698;3.942;2023-01-16T07:25:48;6.40;99.90
9223;DHT22;7557;51.698;3.942;2023-01-16T07:28:18;6.40;99.90
9223;DHT22;7557;51.698;3.942;2023-01-16T07:30:47;6.40;99.90
9223;DHT22;7557;51.698;3.942;2023-01-16T07:33:15;6.40;99.90
9223;DHT22;7557;51.698;3.942;2023-01-16T07:35:42;6.40;99.90
9223;DHT22;7557;51.698;3.942;2023-01-16T07:38:11;6.40;99.90
9223;DHT22;7557;51.698;3.942;2023-01-16T07:40:39;6.40;99.90
9223;DHT22;7557;51.698;3.942;2023-01-16T07:43:06;6.40;99.90
9223;DHT22;7557;51.698;3.942;2023-01-16T07:45:35;6.40;99.90
9223;DHT22;7557;51.698;3.942;2023-01-16T07:48:03;6.40;99.90
9223;DHT22;7557;51.698;3.942;2023-01-16T07:50:30;6.40;99.90
9223;DHT22;7557;51.698;3.942;2023-01-16T07:52:58;6.40;99.90
9223;DHT22;7557;51.698;3.942;2023-01-16T07:55:25;6.40;99.90
9223;DHT22;7557;51.698;3.942;2023-01-16T07:57:53;6.40;99.90
9223;DHT22;7557;51.698;3.942;2023-01-16T08:00:21;6.40;99.90
9223;DHT22;7557;51.698;3.942;2023-01-16T08:02:50;6.40;99.90
9223;DHT22;7557;51.698;3.942;2023-01-16T08:05:17;6.40;99.90
9223;DHT22;7557;51.698;3.942;2023-01-16T08:07:45;6.40;99.90
9223;DHT22;7557;51.698;3.942;2023-01-16T08:10:13;6.40;99.90
9223;DHT22;7557;51.698;3.942;2023-01-16T08:12:40;6.40;99.90
9223;DHT22;7557;51.698;3.942;2023-01-16T08:15:08;6.40;99.90
9223;DHT22;7557;51.698;3.942;2023-01-16T08:17:38;6.40;99.90
9223;DHT22;7557;51.698;3.942;2023-01-16T08:20:09;6.40;99.90
9223;DHT22;7557;51.698;3.942;2023-01-16T08:22:41;6.40;99.90
9223;DHT22;7557;51.698;3.942;2023-01-16T08:25:09;6.50;99.90
9223;DHT22;7557;51.698;3.942;2023-01-16T08:27:37;6.40;99.90
9223;DHT22;7557;51.698;3.942;2023-01-16T08:30:06;6.40;99.90
9223;DHT22;7557;51.698;3.942;2023-01-16T08:32:34;6.40;99.90
9223;DHT22;7557;51.698;3.942;2023-01-16T08:35:01;6.40;99.90
9223;DHT22;7557;51.698;3.942;2023-01-16T08:37:31;6.50;99.90
9223;DHT22;7557;51.698;3.942;2023-01-16T08:39:59;6.50;99.90
9223;DHT22;7557;51.698;3.942;2023-01-16T08:42:27;6.50;99.90
9223;DHT22;7557;51.698;3.942;2023-01-16T08:45:12;6.50;99.90
9223;DHT22;7557;51.698;3.942;2023-01-16T08:47:58;6.50;99.90
9223;DHT22;7557;51.698;3.942;2023-01-16T08:50:45;6.50;99.90
9223;DHT22;7557;51.698;3.942;2023-01-16T08:53:31;6.50;99.90
9223;DHT22;7557;51.698;3.942;2023-01-16T08:55:59;6.50;99.90
9223;DHT22;7557;51.698;3.942;2023-01-16T08:58:26;6.50;99.90
9223;DHT22;7557;51.698;3.942;2023-01-16T09:00:54;6.50;99.90
9223;DHT22;7557;51.698;3.942;2023-01-16T09:03:22;6.50;99.90
9223;DHT22;7557;51.698;3.942;2023-01-16T09:05:49;6.50;99.90
9223;DHT22;7557;51.698;3.942;2023-01-16T09:08:17;6.50;99.90
9223;DHT22;7557;51.698;3.942;2023-01-16T09:10:45;6.50;99.90
9223;DHT22;7557;51.698;3.942;2023-01-16T09:13:26;6.50;99.90
9223;DHT22;7557;51.698;3.942;2023-01-16T09:16:13;6.50;99.90
9223;DHT22;7557;51.698;3.942;2023-01-16T09:18:41;6.50;99.90
9223;DHT22;7557;51.698;3.942;2023-01-16T09:21:08;6.60;99.90
9223;DHT22;7557;51.698;3.942;2023-01-16T09:23:36;6.60;99.90
9223;DHT22;7557;51.698;3.942;2023-01-16T09:26:05;6.60;99.90
9223;DHT22;7557;51.698;3.942;2023-01-16T09:28:33;6.60;99.90
9223;DHT22;7557;51.698;3.942;2023-01-16T09:31:00;6.60;99.90
9223;DHT22;7557;51.698;3.942;2023-01-16T09:33:28;6.60;99.90
9223;DHT22;7557;51.698;3.942;2023-01-16T09:35:55;6.50;99.90
9223;DHT22;7557;51.698;3.942;2023-01-16T09:38:23;6.60;99.90
9223;DHT22;7557;51.698;3.942;2023-01-16T09:40:54;6.50;99.90
9223;DHT22;7557;51.698;3.942;2023-01-16T09:43:35;6.50;99.90
9223;DHT22;7557;51.698;3.942;2023-01-16T09:46:05;6.50;99.90
9223;DHT22;7557;51.698;3.942;2023-01-16T09:48:35;6.50;99.90
9223;DHT22;7557;51.698;3.942;2023-01-16T09:51:06;6.60;99.90
9223;DHT22;7557;51.698;3.942;2023-01-16T09:53:39;6.60;99.90
9223;DHT22;7557;51.698;3.942;2023-01-16T09:56:28;6.60;99.90
9223;DHT22;7557;51.698;3.942;2023-01-16T09:59:24;6.60;99.90
9223;DHT22;7557;51.698;3.942;2023-01-16T10:01:56;6.60;99.90
9223;DHT22;7557;51.698;3.942;2023-01-16T10:04:28;6.60;99.90
9223;DHT22;7557;51.698;3.942;2023-01-16T10:07:18;6.70;99.90
9223;DHT22;7557;51.698;3.942;2023-01-16T10:09:56;6.70;99.90
9223;DHT22;7557;51.698;3.942;2023-01-16T10:12:32;6.70;99.90
9223;DHT22;7557;51.698;3.942;2023-01-16T10:15:16;6.70;99.90
9223;DHT22;7557;51.698;3.942;2023-01-16T10:17:55;6.80;99.90
9223;DHT22;7557;51.698;3.942;2023-01-16T10:20:38;6.80;99.90
9223;DHT22;7557;51.698;3.942;2023-01-16T10:23:16;6.80;99.90
9223;DHT22;7557;51.698;3.942;2023-01-16T10:25:49;6.90;99.90
9223;DHT22;7557;51.698;3.942;2023-01-16T10:28:32;7.00;99.90
9223;DHT22;7557;51.698;3.942;2023-01-16T10:31:10;7.00;99.90
9223;DHT22;7557;51.698;3.942;2023-01-16T10:33:42;7.00;99.90
9223;DHT22;7557;51.698;3.942;2023-01-16T10:36:15;7.00;99.90
9223;DHT22;7557;51.698;3.942;2023-01-16T10:38:47;7.10;99.90
9223;DHT22;7557;51.698;3.942;2023-01-16T10:41:21;7.10;99.90
9223;DHT22;7557;51.698;3.942;2023-01-16T10:44:18;7.10;99.90
9223;DHT22;7557;51.698;3.942;2023-01-16T10:47:10;7.10;99.90
9223;DHT22;7557;51.698;3.942;2023-01-16T10:49:55;7.20;99.90
9223;DHT22;7557;51.698;3.942;2023-01-16T10:52:23;7.20;99.90
9223;DHT22;7557;51.698;3.942;2023-01-16T10:54:52;7.30;99.90
9223;DHT22;7557;51.698;3.942;2023-01-16T10:57:20;7.30;99.90
9223;DHT22;7557;51.698;3.942;2023-01-16T10:59:51;7.40;99.90
9223;DHT22;7557;51.698;3.942;2023-01-16T11:02:28;7.40;99.90
9223;DHT22;7557;51.698;3.942;2023-01-16T11:04:56;7.50;99.90
9223;DHT22;7557;51.698;3.942;2023-01-16T11:07:27;7.50;99.90
9223;DHT22;7557;51.698;3.942;2023-01-16T11:09:56;7.60;99.90
9223;DHT22;7557;51.698;3.942;2023-01-16T11:12:27;7.60;99.90
9223;DHT22;7557;51.698;3.942;2023-01-16T11:15:18;7.60;99.90
9223;DHT22;7557;51.698;3.942;2023-01-16T11:18:22;7.60;99.90
9223;DHT22;7557;51.698;3.942;2023-01-16T11:20:56;7.60;99.90
9223;DHT22;7557;51.698;3.942;2023-01-16T11:23:26;7.50;99.90
9223;DHT22;7557;51.698;3.942;2023-01-16T11:25:55;7.50;99.90
9223;DHT22;7557;51.698;3.942;2023-01-16T11:28:26;7.50;99.90
9223;DHT22;7557;51.698;3.942;2023-01-16T11:30:55;7.50;99.90
9223;DHT22;7557;51.698;3.942;2023-01-16T11:33:27;7.50;99.90
9223;DHT22;7557;51.698;3.942;2023-01-16T11:36:01;7.50;99.90
9223;DHT22;7557;51.698;3.942;2023-01-16T11:38:33;7.50;99.90
9223;DHT22;7557;51.698;3.942;2023-01-16T11:41:05;7.60;99.90
9223;DHT22;7557;51.698;3.942;2023-01-16T11:43:34;7.60;99.90
9223;DHT22;7557;51.698;3.942;2023-01-16T11:46:40;7.60;99.90
9223;DHT22;7557;51.698;3.942;2023-01-16T11:49:16;7.60;99.90
9223;DHT22;7557;51.698;3.942;2023-01-16T11:51:44;7.60;99.90
9223;DHT22;7557;51.698;3.942;2023-01-16T11:54:17;7.50;99.90
9223;DHT22;7557;51.698;3.942;2023-01-16T12:00:22;7.60;99.90
9223;DHT22;7557;51.698;3.942;2023-01-16T12:06:10;7.50;99.90
9223;DHT22;7557;51.698;3.942;2023-01-16T12:09:03;7.50;99.90
9223;DHT22;7557;51.698;3.942;2023-01-16T12:11:55;7.50;99.90
9223;DHT22;7557;51.698;3.942;2023-01-16T12:14:49;7.50;99.90
9223;DHT22;7557;51.698;3.942;2023-01-16T12:17:26;7.50;99.90
9223;DHT22;7557;51.698;3.942;2023-01-16T12:20:17;7.50;99.90
9223;DHT22;7557;51.698;3.942;2023-01-16T12:23:08;7.60;99.90
9223;DHT22;7557;51.698;3.942;2023-01-16T12:25:47;7.60;99.90
9223;DHT22;7557;51.698;3.942;2023-01-16T12:28:25;7.60;99.90
9223;DHT22;7557;51.698;3.942;2023-01-16T12:31:07;7.60;99.90
9223;DHT22;7557;51.698;3.942;2023-01-16T12:34:00;7.60;99.90
9223;DHT22;7557;51.698;3.942;2023-01-16T12:36:36;7.60;99.90
9223;DHT22;7557;51.698;3.942;2023-01-16T12:39:16;7.60;99.90
9223;DHT22;7557;51.698;3.942;2023-01-16T12:41:48;7.60;99.90
9223;DHT22;7557;51.698;3.942;2023-01-16T12:44:45;7.60;99.90
9223;DHT22;7557;51.698;3.942;2023-01-16T12:47:35;7.60;99.90
9223;DHT22;7557;51.698;3.942;2023-01-16T12:50:14;7.70;99.90
9223;DHT22;7557;51.698;3.942;2023-01-16T12:52:57;7.60;99.90
9223;DHT22;7557;51.698;3.942;2023-01-16T12:55:37;7.60;99.90
9223;DHT22;7557;51.698;3.942;2023-01-16T12:58:12;7.60;99.90
9223;DHT22;7557;51.698;3.942;2023-01-16T13:00:45;7.70;99.90
9223;DHT22;7557;51.698;3.942;2023-01-16T13:03:25;7.60;99.90
9223;DHT22;7557;51.698;3.942;2023-01-16T13:05:55;7.60;99.90
9223;DHT22;7557;51.698;3.942;2023-01-16T13:08:27;7.60;99.90
9223;DHT22;7557;51.698;3.942;2023-01-16T13:11:01;7.60;99.90
9223;DHT22;7557;51.698;3.942;2023-01-16T13:13:51;7.60;99.90
9223;DHT22;7557;51.698;3.942;2023-01-16T13:16:25;7.60;99.90
9223;DHT22;7557;51.698;3.942;2023-01-16T13:18:56;7.60;99.90
9223;DHT22;7557;51.698;3.942;2023-01-16T13:21:27;7.60;99.90
9223;DHT22;7557;51.698;3.942;2023-01-16T13:23:58;7.70;99.90
9223;DHT22;7557;51.698;3.942;2023-01-16T13:26:29;7.70;99.90
9223;DHT22;7557;51.698;3.942;2023-01-16T13:29:04;7.70;99.90
9223;DHT22;7557;51.698;3.942;2023-01-16T13:31:35;7.60;99.90
9223;DHT22;7557;51.698;3.942;2023-01-16T13:34:08;7.70;99.90
9223;DHT22;7557;51.698;3.942;2023-01-16T13:37:01;7.60;99.90
9223;DHT22;7557;51.698;3.942;2023-01-16T13:39:59;7.70;99.90
9223;DHT22;7557;51.698;3.942;2023-01-16T13:42:34;7.60;99.90
9223;DHT22;7557;51.698;3.942;2023-01-16T13:45:07;7.60;99.90
9223;DHT22;7557;51.698;3.942;2023-01-16T13:48:00;7.60;99.90
9223;DHT22;7557;51.698;3.942;2023-01-16T13:50:29;7.60;99.90
9223;DHT22;7557;51.698;3.942;2023-01-16T13:53:00;7.60;99.90
9223;DHT22;7557;51.698;3.942;2023-01-16T13:55:31;7.60;99.90
9223;DHT22;7557;51.698;3.942;2023-01-16T13:58:09;7.50;99.90
9223;DHT22;7557;51.698;3.942;2023-01-16T14:00:38;7.50;99.90
9223;DHT22;7557;51.698;3.942;2023-01-16T14:03:21;7.40;99.90
9223;DHT22;7557;51.698;3.942;2023-01-16T14:05:52;7.40;99.90
9223;DHT22;7557;51.698;3.942;2023-01-16T14:08:50;7.30;99.90
9223;DHT22;7557;51.698;3.942;2023-01-16T14:11:39;7.20;99.90
9223;DHT22;7557;51.698;3.942;2023-01-16T14:14:31;7.10;99.90
9223;DHT22;7557;51.698;3.942;2023-01-16T14:17:17;7.10;99.90
9223;DHT22;7557;51.698;3.942;2023-01-16T14:19:56;7.00;99.90
9223;DHT22;7557;51.698;3.942;2023-01-16T14:22:32;6.90;99.90
9223;DHT22;7557;51.698;3.942;2023-01-16T14:25:20;6.80;99.90
9223;DHT22;7557;51.698;3.942;2023-01-16T14:27:51;6.70;99.90
9223;DHT22;7557;51.698;3.942;2023-01-16T14:30:25;6.60;99.90
9223;DHT22;7557;51.698;3.942;2023-01-16T14:32:55;6.50;99.90
9223;DHT22;7557;51.698;3.942;2023-01-16T14:35:26;6.50;99.90
9223;DHT22;7557;51.698;3.942;2023-01-16T14:38:00;6.40;99.90
9223;DHT22;7557;51.698;3.942;2023-01-16T14:40:31;6.40;99.90
9223;DHT22;7557;51.698;3.942;2023-01-16T14:43:30;6.40;99.90
9223;DHT22;7557;51.698;3.942;2023-01-16T14:46:33;6.40;99.90
9223;DHT22;7557;51.698;3.942;2023-01-16T14:49:40;6.40;99.90
9223;DHT22;7557;51.698;3.942;2023-01-16T14:52:48;6.40;99.90
9223;DHT22;7557;51.698;3.942;2023-01-16T14:55:48;6.50;99.90
9223;DHT22;7557;51.698;3.942;2023-01-16T14:58:22;6.40;99.90
9223;DHT22;7557;51.698;3.942;2023-01-16T15:00:51;6.50;99.90
9223;DHT22;7557;51.698;3.942;2023-01-16T15:03:28;6.50;99.90
9223;DHT22;7557;51.698;3.942;2023-01-16T15:05:57;6.60;99.90
9223;DHT22;7557;51.698;3.942;2023-01-16T15:08:31;6.50;99.90
9223;DHT22;7557;51.698;3.942;2023-01-16T15:11:07;6.50;99.90
9223;DHT22;7557;51.698;3.942;2023-01-16T15:14:11;6.40;99.90
9223;DHT22;7557;51.698;3.942;2023-01-16T15:17:05;6.30;99.90
9223;DHT22;7557;51.698;3.942;2023-01-16T15:20:13;6.30;99.90
9223;DHT22;7557;51.698;3.942;2023-01-16T15:23:00;6.40;99.90
9223;DHT22;7557;51.698;3.942;2023-01-16T15:25:44;6.30;99.90
9223;DHT22;7557;51.698;3.942;2023-01-16T15:28:19;6.20;99.90
9223;DHT22;7557;51.698;3.942;2023-01-16T15:30:50;6.10;99.90
9223;DHT22;7557;51.698;3.942;2023-01-16T15:33:26;6.10;99.90
9223;DHT22;7557;51.698;3.942;2023-01-16T15:36:20;6.00;99.90
9223;DHT22;7557;51.698;3.942;2023-01-16T15:38:50;6.00;99.90
9223;DHT22;7557;51.698;3.942;2023-01-16T15:41:21;5.90;99.90
9223;DHT22;7557;51.698;3.942;2023-01-16T15:44:16;5.90;99.90
9223;DHT22;7557;51.698;3.942;2023-01-16T15:47:22;5.90;99.90
9223;DHT22;7557;51.698;3.942;2023-01-16T15:50:02;5.80;99.90
9223;DHT22;7557;51.698;3.942;2023-01-16T15:52:35;5.80;99.90
9223;DHT22;7557;51.698;3.942;2023-01-16T15:55:10;5.80;99.90
9223;DHT22;7557;51.698;3.942;2023-01-16T15:57:38;5.70;99.90
9223;DHT22;7557;51.698;3.942;2023-01-16T16:00:25;5.70;99.90
9223;DHT22;7557;51.698;3.942;2023-01-16T16:02:57;5.70;99.90
9223;DHT22;7557;51.698;3.942;2023-01-16T16:05:26;5.60;99.90
9223;DHT22;7557;51.698;3.942;2023-01-16T16:07:59;5.70;99.90
9223;DHT22;7557;51.698;3.942;2023-01-16T16:10:28;5.70;99.90
9223;DHT22;7557;51.698;3.942;2023-01-16T16:13:16;5.70;99.90
9223;DHT22;7557;51.698;3.942;2023-01-16T16:15:55;5.70;99.90
9223;DHT22;7557;51.698;3.942;2023-01-16T16:18:51;5.60;99.90
9223;DHT22;7557;51.698;3.942;2023-01-16T16:21:20;5.60;99.90
9223;DHT22;7557;51.698;3.942;2023-01-16T16:23:59;5.60;99.90
9223;DHT22;7557;51.698;3.942;2023-01-16T16:26:28;5.50;99.90
9223;DHT22;7557;51.698;3.942;2023-01-16T16:28:56;5.60;99.90
9223;DHT22;7557;51.698;3.942;2023-01-16T16:31:28;5.50;99.90
9223;DHT22;7557;51.698;3.942;2023-01-16T16:33:59;5.50;99.90
9223;DHT22;7557;51.698;3.942;2023-01-16T16:36:28;5.50;99.90
9223;DHT22;7557;51.698;3.942;2023-01-16T16:38:57;5.50;99.90
9223;DHT22;7557;51.698;3.942;2023-01-16T16:41:44;5.50;99.90
9223;DHT22;7557;51.698;3.942;2023-01-16T16:44:37;5.50;99.90
9223;DHT22;7557;51.698;3.942;2023-01-16T16:47:25;5.50;99.90
9223;DHT22;7557;51.698;3.942;2023-01-16T16:49:53;5.50;99.90
9223;DHT22;7557;51.698;3.942;2023-01-16T16:52:34;5.50;99.90
9223;DHT22;7557;51.698;3.942;2023-01-16T16:55:26;5.50;99.90
9223;DHT22;7557;51.698;3.942;2023-01-16T16:57:55;5.50;99.90
9223;DHT22;7557;51.698;3.942;2023-01-16T17:00:24;5.50;99.90
9223;DHT22;7557;51.698;3.942;2023-01-16T17:02:57;5.50;99.90
9223;DHT22;7557;51.698;3.942;2023-01-16T17:05:28;5.50;99.90
9223;DHT22;7557;51.698;3.942;2023-01-16T17:07:56;5.50;99.90
9223;DHT22;7557;51.698;3.942;2023-01-16T17:10:25;5.50;99.90
9223;DHT22;7557;51.698;3.942;2023-01-16T17:12:52;5.50;99.90